Time;durP1;ratioP1;P1;durP2;ratioP2;P2;SDS_P1;SDS_P2;PMS_P1;PMS_P2;Temp;Humidity;BMP_temperature;BMP_pressure;BME280_temperature;BME280_humidity;BME280_pressure;Samples;Min_cycle;Max_cycle;Signal;HPM_P1;HPM_P2
2021/10/22 00:00:31;;;;;;;0.40;0.30;;;9.60;99.90;;;;;;5094139;28;20381;-70
2021/10/22 00:02:57;;;;;;;0.40;0.20;;;9.50;99.90;;;;;;5092774;28;20421;-70
2021/10/22 00:05:23;;;;;;;0.40;0.20;;;9.30;99.90;;;;;;5094010;28;20877;-69
2021/10/22 00:07:48;;;;;;;0.40;0.30;;;9.20;99.90;;;;;;5093208;28;20398;-69
2021/10/22 00:10:14;;;;;;;0.40;0.20;;;8.90;99.90;;;;;;5093787;28;20443;-69
2021/10/22 00:12:40;;;;;;;0.40;0.20;;;8.90;99.90;;;;;;5092597;28;20386;-69
2021/10/22 00:15:08;;;;;;;0.40;0.20;;;8.90;99.90;;;;;;5093752;28;20417;-69
2021/10/22 00:17:35;;;;;;;0.40;0.20;;;8.80;99.90;;;;;;5093702;28;20382;-69
2021/10/22 00:20:00;;;;;;;0.40;0.20;;;8.70;99.90;;;;;;5093190;28;20739;-69
2021/10/22 00:22:26;;;;;;;0.40;0.20;;;8.70;99.90;;;;;;5093340;28;20420;-70
2021/10/22 00:24:51;;;;;;;0.40;0.20;;;8.70;99.90;;;;;;5092777;28;20866;-70
2021/10/22 00:27:17;;;;;;;0.40;0.20;;;8.60;99.90;;;;;;5093049;28;20401;-70
2021/10/22 00:29:43;;;;;;;0.40;0.20;;;8.70;99.90;;;;;;5091402;28;20398;-70
2021/10/22 00:32:08;;;;;;;0.40;0.20;;;8.80;99.90;;;;;;5093208;28;20394;-70
2021/10/22 00:34:34;;;;;;;0.40;0.20;;;8.80;99.90;;;;;;5093167;28;20378;-70
2021/10/22 00:37:00;;;;;;;0.40;0.20;;;8.90;99.90;;;;;;5092719;28;20374;-70
2021/10/22 00:39:26;;;;;;;0.40;0.20;;;8.90;99.90;;;;;;5092911;28;20378;-71
2021/10/22 00:41:52;;;;;;;0.40;0.20;;;9.00;99.90;;;;;;5092804;28;20454;-72
2021/10/22 00:44:18;;;;;;;0.40;0.20;;;8.90;99.90;;;;;;5092980;28;20453;-70
2021/10/22 00:46:44;;;;;;;0.40;0.20;;;9.00;99.90;;;;;;5092829;28;20831;-71
2021/10/22 00:49:12;;;;;;;0.40;0.20;;;9.00;99.90;;;;;;5090083;28;20781;-70
2021/10/22 00:51:38;;;;;;;0.40;0.20;;;9.00;99.90;;;;;;5084926;28;20430;-71
2021/10/22 00:54:05;;;;;;;0.40;0.20;;;9.00;99.90;;;;;;5078175;28;20459;-71
2021/10/22 00:56:33;;;;;;;0.40;0.20;;;9.00;99.90;;;;;;5072479;28;20379;-71
2021/10/22 00:58:58;;;;;;;0.40;0.20;;;9.00;99.90;;;;;;5076165;28;20917;-71
2021/10/22 01:01:24;;;;;;;0.40;0.20;;;9.00;99.90;;;;;;5092720;28;20382;-71
2021/10/22 01:03:50;;;;;;;4.20;0.80;;;9.10;99.90;;;;;;5091913;28;20799;-71
2021/10/22 01:06:16;;;;;;;0.40;0.20;;;9.10;99.90;;;;;;5092742;28;20433;-72
2021/10/22 01:08:42;;;;;;;0.40;0.20;;;9.00;99.90;;;;;;5091930;28;20847;-71
2021/10/22 01:11:08;;;;;;;0.40;0.25;;;8.90;99.90;;;;;;5092703;28;20381;-71
2021/10/22 01:13:34;;;;;;;0.40;0.20;;;8.80;99.90;;;;;;5092500;28;20378;-71
2021/10/22 01:15:59;;;;;;;0.40;0.30;;;8.80;99.90;;;;;;5091960;28;20382;-71
2021/10/22 01:18:27;;;;;;;0.40;0.20;;;8.80;99.90;;;;;;5091330;28;20388;-70
2021/10/22 01:21:00;;;;;;;0.40;0.20;;;8.80;99.90;;;;;;5091788;28;20374;-71
2021/10/22 01:23:25;;;;;;;0.40;0.20;;;8.80;99.90;;;;;;5092028;28;20410;-70
2021/10/22 01:25:51;;;;;;;0.40;0.20;;;8.80;99.90;;;;;;5091371;28;20379;-70
2021/10/22 01:28:19;;;;;;;0.40;0.20;;;8.80;99.90;;;;;;5092367;28;20850;-70
2021/10/22 01:30:44;;;;;;;0.40;0.20;;;8.80;99.90;;;;;;5091419;28;20405;-70
2021/10/22 01:33:10;;;;;;;0.40;0.20;;;8.80;99.90;;;;;;5091889;28;20386;-70
2021/10/22 01:35:36;;;;;;;0.40;0.40;;;8.60;99.90;;;;;;5092061;28;20396;-70
2021/10/22 01:38:02;;;;;;;0.50;0.50;;;8.50;99.90;;;;;;5091499;28;20378;-70
2021/10/22 01:40:29;;;;;;;0.40;0.40;;;8.60;99.90;;;;;;5091824;28;20538;-70
2021/10/22 01:42:55;;;;;;;0.40;0.20;;;8.70;99.90;;;;;;5091408;28;20414;-69
2021/10/22 01:45:21;;;;;;;0.40;0.30;;;8.80;99.90;;;;;;5091429;28;20460;-70
2021/10/22 01:47:48;;;;;;;0.50;0.50;;;8.90;99.90;;;;;;5091341;28;20507;-70
2021/10/22 01:50:14;;;;;;;0.40;0.20;;;8.90;99.90;;;;;;5091922;28;20417;-70
2021/10/22 01:52:40;;;;;;;0.40;0.30;;;9.00;99.90;;;;;;5091532;28;20401;-70
2021/10/22 01:55:07;;;;;;;0.40;0.20;;;8.90;99.90;;;;;;5089947;28;20712;-70
2021/10/22 01:57:33;;;;;;;0.40;0.30;;;8.80;99.90;;;;;;5091992;28;20866;-70
2021/10/22 01:59:58;;;;;;;0.40;0.20;;;8.90;99.90;;;;;;5090883;28;20449;-71
2021/10/22 02:02:24;;;;;;;0.40;0.20;;;8.80;99.90;;;;;;5091633;28;20521;-70
2021/10/22 02:04:50;;;;;;;0.40;0.30;;;8.90;99.90;;;;;;5090597;28;20734;-70
2021/10/22 02:07:15;;;;;;;0.40;0.20;;;8.90;99.90;;;;;;5091396;28;20370;-70
2021/10/22 02:09:41;;;;;;;0.40;0.20;;;8.90;99.90;;;;;;5091567;28;20397;-70
2021/10/22 02:12:07;;;;;;;0.40;0.20;;;8.80;99.90;;;;;;5091007;28;20381;-70
2021/10/22 02:14:33;;;;;;;2.90;0.90;;;8.70;99.90;;;;;;5091396;28;20382;-70
2021/10/22 02:16:58;;;;;;;0.40;0.20;;;8.70;99.90;;;;;;5090891;28;20378;-71
2021/10/22 02:19:24;;;;;;;0.40;0.20;;;8.80;99.90;;;;;;5090985;28;20438;-71
2021/10/22 02:21:50;;;;;;;0.40;0.30;;;8.80;99.90;;;;;;5090600;28;20417;-71
2021/10/22 02:24:15;;;;;;;0.40;0.20;;;8.60;99.90;;;;;;5091218;28;20388;-70
2021/10/22 02:26:41;;;;;;;0.40;0.20;;;8.80;99.90;;;;;;5091311;28;20473;-70
2021/10/22 02:29:07;;;;;;;0.40;0.20;;;8.80;99.90;;;;;;5090704;28;20366;-70
2021/10/22 02:31:32;;;;;;;0.40;0.28;;;8.80;99.90;;;;;;5090931;28;20374;-70
2021/10/22 02:33:58;;;;;;;0.40;0.20;;;8.90;99.90;;;;;;5090661;28;20401;-70
2021/10/22 02:36:24;;;;;;;0.40;0.20;;;9.00;99.90;;;;;;5091169;28;20438;-70
2021/10/22 02:38:49;;;;;;;0.40;0.20;;;9.00;99.90;;;;;;5090192;28;20381;-70
2021/10/22 02:41:15;;;;;;;0.40;0.30;;;9.00;99.90;;;;;;5090995;28;20556;-70
2021/10/22 02:43:41;;;;;;;0.40;0.30;;;8.90;99.90;;;;;;5090460;28;20445;-70
2021/10/22 02:46:07;;;;;;;0.40;0.20;;;8.90;99.90;;;;;;5090371;28;20548;-71
2021/10/22 02:48:33;;;;;;;0.40;0.20;;;8.90;99.90;;;;;;5091255;28;20386;-71
2021/10/22 02:50:58;;;;;;;0.40;0.20;;;8.90;99.90;;;;;;5080114;28;20436;-70
2021/10/22 02:53:24;;;;;;;0.40;0.20;;;8.80;99.90;;;;;;5072981;28;20872;-71
2021/10/22 02:55:50;;;;;;;0.40;0.20;;;8.70;99.90;;;;;;5076743;28;20842;-71
2021/10/22 02:58:16;;;;;;;0.40;0.20;;;8.90;99.90;;;;;;5090982;28;20448;-71
2021/10/22 03:00:42;;;;;;;0.40;0.20;;;9.00;99.90;;;;;;5085481;28;20472;-72
2021/10/22 03:03:08;;;;;;;0.40;0.20;;;8.90;99.90;;;;;;5070311;28;20465;-71
2021/10/22 03:05:33;;;;;;;0.40;0.20;;;8.90;99.90;;;;;;5070600;28;20391;-71
2021/10/22 03:07:59;;;;;;;0.40;0.20;;;8.90;99.90;;;;;;5070068;28;20379;-71
2021/10/22 03:10:26;;;;;;;0.40;0.20;;;8.90;99.90;;;;;;5070108;28;20441;-71
2021/10/22 03:12:51;;;;;;;0.40;0.20;;;8.90;99.90;;;;;;5070144;28;20387;-71
2021/10/22 03:15:18;;;;;;;0.40;0.20;;;8.80;99.90;;;;;;5070155;28;20394;-71
2021/10/22 03:17:44;;;;;;;0.40;0.20;;;8.80;99.90;;;;;;5074148;28;20376;-71
2021/10/22 03:20:10;;;;;;;0.40;0.20;;;8.80;99.90;;;;;;5072548;28;20387;-71
2021/10/22 03:22:36;;;;;;;0.40;0.20;;;8.80;99.90;;;;;;5073880;28;20478;-71
2021/10/22 03:25:04;;;;;;;0.40;0.20;;;8.70;99.90;;;;;;5072671;28;20433;-71
2021/10/22 03:27:30;;;;;;;0.40;0.20;;;8.70;99.90;;;;;;5073855;28;20378;-71
2021/10/22 03:29:55;;;;;;;0.40;0.20;;;8.70;99.90;;;;;;5073085;28;20380;-72
2021/10/22 03:32:21;;;;;;;0.40;0.20;;;8.70;99.90;;;;;;5072531;28;20460;-71
2021/10/22 03:34:47;;;;;;;0.40;0.20;;;8.70;99.90;;;;;;5074216;28;20537;-71
2021/10/22 03:37:13;;;;;;;0.40;0.40;;;8.60;99.90;;;;;;5074022;28;20387;-71
2021/10/22 03:39:39;;;;;;;0.40;0.20;;;8.60;99.90;;;;;;5073940;28;20856;-71
2021/10/22 03:42:05;;;;;;;0.40;0.20;;;8.80;99.90;;;;;;5073217;28;20415;-71
2021/10/22 03:44:31;;;;;;;0.80;0.60;;;8.70;99.90;;;;;;5073747;28;20380;-71
2021/10/22 03:46:57;;;;;;;0.40;0.20;;;8.80;99.90;;;;;;5088381;28;20374;-72
2021/10/22 03:49:23;;;;;;;0.40;0.20;;;8.70;99.90;;;;;;5093955;28;20719;-72
2021/10/22 03:51:48;;;;;;;0.40;0.20;;;8.60;99.90;;;;;;5093441;28;20398;-71
2021/10/22 03:54:14;;;;;;;0.40;0.20;;;8.60;99.90;;;;;;5093395;28;20449;-71
2021/10/22 03:56:40;;;;;;;0.50;0.50;;;8.50;99.90;;;;;;5093666;28;20400;-71
2021/10/22 03:59:06;;;;;;;0.40;0.30;;;8.50;99.90;;;;;;5093653;28;20468;-71
2021/10/22 04:01:32;;;;;;;0.40;0.20;;;8.40;99.90;;;;;;5093869;28;20730;-71
2021/10/22 04:03:58;;;;;;;0.40;0.20;;;8.50;99.90;;;;;;5093645;28;20791;-72
2021/10/22 04:06:23;;;;;;;0.50;0.50;;;8.40;99.90;;;;;;5093844;28;20473;-71
2021/10/22 04:08:49;;;;;;;0.40;0.40;;;8.30;99.90;;;;;;5094087;28;20374;-71
2021/10/22 04:11:15;;;;;;;1.00;0.60;;;8.30;99.90;;;;;;5093752;28;20465;-71
2021/10/22 04:13:40;;;;;;;0.40;0.20;;;8.20;99.90;;;;;;5092924;28;20473;-71
2021/10/22 04:16:06;;;;;;;0.40;0.20;;;8.30;99.90;;;;;;5093350;28;20409;-71
2021/10/22 04:18:32;;;;;;;0.40;0.20;;;8.20;99.90;;;;;;5093928;28;20382;-71
2021/10/22 04:20:58;;;;;;;0.40;0.30;;;8.20;99.90;;;;;;5092792;28;20378;-71
2021/10/22 04:23:23;;;;;;;0.40;0.20;;;8.20;99.90;;;;;;5093199;28;20478;-71
2021/10/22 04:25:49;;;;;;;0.40;0.20;;;8.30;99.90;;;;;;5093151;28;20400;-71
2021/10/22 04:28:16;;;;;;;0.40;0.20;;;8.20;99.90;;;;;;5092452;28;20745;-71
2021/10/22 04:30:41;;;;;;;0.40;0.20;;;8.20;99.90;;;;;;5093480;28;20382;-71
2021/10/22 04:33:07;;;;;;;0.40;0.20;;;8.30;99.90;;;;;;5092548;28;20442;-72
2021/10/22 04:35:33;;;;;;;0.40;0.30;;;8.30;99.90;;;;;;5093609;28;20393;-71
2021/10/22 04:40:45;;;;;;;0.40;0.20;;;8.30;99.90;;;;;;5061710;28;20914;-71
2021/10/22 04:43:18;;;;;;;0.40;0.30;;;8.40;99.90;;;;;;5092627;28;20410;-71
2021/10/22 04:45:50;;;;;;;0.40;0.20;;;8.50;99.90;;;;;;5092110;28;20479;-71
2021/10/22 04:48:16;;;;;;;0.40;0.20;;;8.30;99.90;;;;;;5092804;28;20391;-73
2021/10/22 04:50:51;;;;;;;0.40;0.20;;;8.30;99.90;;;;;;5081076;28;20901;-73
2021/10/22 04:53:27;;;;;;;0.40;0.20;;;8.50;99.90;;;;;;5074753;28;20408;-73
2021/10/22 04:55:54;;;;;;;0.40;0.30;;;8.30;99.90;;;;;;5084089;28;20374;-73
2021/10/22 04:58:20;;;;;;;0.40;0.20;;;8.20;99.90;;;;;;5092699;28;20863;-73
2021/10/22 05:00:46;;;;;;;0.40;0.20;;;8.20;99.90;;;;;;5088876;28;20388;-74
2021/10/22 05:03:12;;;;;;;0.40;0.20;;;8.30;99.90;;;;;;5072114;28;20465;-74
2021/10/22 05:05:37;;;;;;;0.40;0.20;;;8.20;99.90;;;;;;5071462;28;20407;-73
2021/10/22 05:08:03;;;;;;;0.40;0.20;;;8.40;99.90;;;;;;5072136;28;20372;-73
2021/10/22 05:10:30;;;;;;;0.40;0.20;;;8.40;99.90;;;;;;5072742;28;20387;-74
2021/10/22 05:12:56;;;;;;;0.40;0.20;;;8.30;99.90;;;;;;5071662;28;20411;-74
2021/10/22 05:15:23;;;;;;;0.50;0.50;;;8.10;99.90;;;;;;5072659;28;20384;-74
2021/10/22 05:17:49;;;;;;;0.40;0.20;;;8.10;99.90;;;;;;5072528;28;20380;-74
2021/10/22 05:20:15;;;;;;;0.40;0.20;;;8.20;99.90;;;;;;5071968;28;20728;-74
2021/10/22 05:22:41;;;;;;;0.40;0.20;;;8.10;99.90;;;;;;5071950;28;20418;-74
2021/10/22 05:25:10;;;;;;;0.40;0.20;;;8.10;99.90;;;;;;5071390;28;20438;-74
2021/10/22 05:27:36;;;;;;;0.40;0.20;;;8.10;99.90;;;;;;5071824;28;20852;-74
2021/10/22 05:30:04;;;;;;;0.40;0.20;;;8.00;99.90;;;;;;5071538;28;20384;-74
2021/10/22 05:32:30;;;;;;;0.40;0.20;;;8.00;99.90;;;;;;5072163;28;20396;-74
2021/10/22 05:34:55;;;;;;;0.40;0.20;;;7.90;99.90;;;;;;5071393;28;20721;-75
2021/10/22 05:37:21;;;;;;;0.40;0.20;;;7.80;99.90;;;;;;5072120;28;20383;-74
2021/10/22 05:39:47;;;;;;;0.40;0.20;;;7.80;99.90;;;;;;5071142;28;20395;-74
2021/10/22 05:42:13;;;;;;;0.40;0.20;;;7.70;99.90;;;;;;5071248;28;20499;-74
2021/10/22 05:44:38;;;;;;;0.40;0.20;;;7.80;99.90;;;;;;5069462;28;20898;-74
2021/10/22 05:47:04;;;;;;;0.40;0.20;;;7.80;99.90;;;;;;5086276;28;20712;-74
2021/10/22 05:49:30;;;;;;;0.50;0.50;;;7.80;99.90;;;;;;5091829;28;20386;-74
2021/10/22 05:51:56;;;;;;;0.40;0.20;;;7.70;99.90;;;;;;5091653;28;20397;-74
2021/10/22 05:54:21;;;;;;;0.40;0.20;;;7.80;99.90;;;;;;5091997;28;20745;-73
2021/10/22 05:56:49;;;;;;;0.40;0.20;;;7.80;99.90;;;;;;5091880;28;20370;-74
2021/10/22 05:59:15;;;;;;;0.40;0.20;;;7.60;99.90;;;;;;5091185;28;20436;-74
2021/10/22 06:01:41;;;;;;;0.40;0.20;;;7.70;99.90;;;;;;5091615;28;20438;-74
2021/10/22 06:04:06;;;;;;;0.40;0.20;;;7.70;99.90;;;;;;5091095;28;20382;-75
2021/10/22 06:06:32;;;;;;;0.40;0.20;;;7.60;99.90;;;;;;5091522;28;20781;-75
2021/10/22 06:08:59;;;;;;;0.40;0.30;;;7.70;99.90;;;;;;5091321;28;20410;-75
2021/10/22 06:11:25;;;;;;;0.40;0.20;;;7.70;99.90;;;;;;5078491;28;20439;-75
2021/10/22 06:13:51;;;;;;;0.40;0.40;;;7.70;99.90;;;;;;5085807;28;20426;-75
2021/10/22 06:16:17;;;;;;;0.40;0.20;;;7.70;99.90;;;;;;5082830;28;21411;-74
2021/10/22 06:18:47;;;;;;;0.40;0.20;;;7.70;99.90;;;;;;5087750;28;20374;-74
2021/10/22 06:23:55;;;;;;;0.50;0.50;;;7.60;99.90;;;;;;5073110;28;20418;-74
2021/10/22 06:26:23;;;;;;;0.80;0.40;;;7.70;99.90;;;;;;5084526;28;20378;-75
2021/10/22 06:28:53;;;;;;;0.40;0.20;;;7.70;99.90;;;;;;5086144;28;20443;-74
2021/10/22 06:31:20;;;;;;;0.40;0.20;;;7.60;99.90;;;;;;5074777;28;20414;-74
2021/10/22 06:33:46;;;;;;;3.30;0.50;;;7.60;99.90;;;;;;5070044;28;20422;-74
2021/10/22 06:36:12;;;;;;;0.40;0.20;;;7.60;99.90;;;;;;5090247;28;20386;-75
2021/10/22 06:38:38;;;;;;;0.40;0.20;;;7.60;99.90;;;;;;5090730;28;20382;-75
2021/10/22 06:41:07;;;;;;;0.40;0.20;;;7.60;99.90;;;;;;5076055;28;20466;-74
2021/10/22 06:43:33;;;;;;;0.40;0.20;;;7.50;99.90;;;;;;5078942;28;20414;-75
2021/10/22 06:45:59;;;;;;;0.40;0.20;;;7.60;99.90;;;;;;5090868;28;20461;-74
2021/10/22 06:48:25;;;;;;;0.40;0.20;;;7.70;99.90;;;;;;5082286;28;20471;-75
2021/10/22 06:50:51;;;;;;;0.40;0.20;;;7.70;99.90;;;;;;5070825;28;20383;-75
2021/10/22 06:53:17;;;;;;;0.40;0.20;;;7.80;99.90;;;;;;5069925;28;20415;-74
2021/10/22 06:55:43;;;;;;;0.40;0.20;;;7.70;99.90;;;;;;5070756;28;20705;-74
2021/10/22 06:58:09;;;;;;;0.40;0.20;;;7.80;99.90;;;;;;5069969;28;20375;-74
2021/10/22 07:00:36;;;;;;;0.40;0.20;;;7.80;99.90;;;;;;5070950;28;20459;-74
2021/10/22 07:03:02;;;;;;;0.40;0.20;;;7.80;99.90;;;;;;5085641;28;20847;-74
2021/10/22 07:07:58;;;;;;;0.40;0.20;;;7.90;99.90;;;;;;5093218;28;20390;-74
2021/10/22 07:10:23;;;;;;;0.40;0.20;;;7.80;99.90;;;;;;5089930;28;20374;-74
2021/10/22 07:12:49;;;;;;;1.10;0.60;;;7.80;99.90;;;;;;5089797;28;20532;-74
2021/10/22 07:15:15;;;;;;;0.40;0.20;;;7.80;99.90;;;;;;5089541;28;20424;-74
2021/10/22 07:17:47;;;;;;;0.40;0.20;;;7.80;99.90;;;;;;5089930;28;20370;-74
2021/10/22 07:20:14;;;;;;;0.40;0.20;;;7.70;99.90;;;;;;5089510;28;20432;-74
2021/10/22 07:25:26;;;;;;;0.40;0.20;;;7.80;99.90;;;;;;5084581;28;20741;-74
2021/10/22 07:27:51;;;;;;;0.40;0.20;;;7.90;99.90;;;;;;5088180;28;20385;-74
2021/10/22 07:30:17;;;;;;;0.40;0.30;;;8.00;99.90;;;;;;5089428;28;20394;-74
2021/10/22 07:32:46;;;;;;;0.40;0.20;;;8.00;99.90;;;;;;5090097;28;20402;-74
2021/10/22 07:35:13;;;;;;;0.40;0.20;;;7.90;99.90;;;;;;5089873;28;20374;-75
2021/10/22 07:37:38;;;;;;;0.40;0.20;;;8.00;99.90;;;;;;5090371;28;20378;-74
2021/10/22 07:40:05;;;;;;;0.40;0.20;;;8.00;99.90;;;;;;5089643;28;20869;-75
2021/10/22 07:42:31;;;;;;;0.40;0.20;;;8.00;99.90;;;;;;5090589;28;20428;-74
2021/10/22 07:44:59;;;;;;;0.40;0.20;;;8.00;99.90;;;;;;5090175;28;20390;-74
2021/10/22 07:47:29;;;;;;;0.40;0.30;;;8.00;99.90;;;;;;5089521;28;20389;-74
2021/10/22 07:49:56;;;;;;;0.40;0.20;;;8.10;99.90;;;;;;5089157;28;20446;-73
2021/10/22 07:52:24;;;;;;;0.90;0.90;;;8.10;99.90;;;;;;5088829;28;20437;-72
2021/10/22 07:54:53;;;;;;;0.40;0.20;;;8.20;99.90;;;;;;5090363;28;20735;-72
2021/10/22 07:57:20;;;;;;;0.40;0.20;;;8.30;99.90;;;;;;5088661;28;20386;-72
2021/10/22 07:59:47;;;;;;;0.40;0.20;;;8.20;99.90;;;;;;5090250;28;20386;-72
2021/10/22 08:02:14;;;;;;;0.40;0.30;;;8.20;99.90;;;;;;5090617;28;20535;-72
2021/10/22 08:04:41;;;;;;;0.40;0.20;;;8.20;99.90;;;;;;5093996;28;20390;-72
2021/10/22 08:07:07;;;;;;;0.40;0.20;;;8.20;99.90;;;;;;5093182;28;20393;-72
2021/10/22 08:09:32;;;;;;;0.40;0.20;;;8.20;99.90;;;;;;5093808;28;20378;-73
2021/10/22 08:11:58;;;;;;;0.40;0.20;;;8.20;99.90;;;;;;5075255;28;20387;-72
2021/10/22 08:14:24;;;;;;;0.40;0.20;;;8.20;99.90;;;;;;5089001;28;21006;-73
2021/10/22 08:16:50;;;;;;;0.40;0.20;;;8.30;99.90;;;;;;5086423;28;20465;-72
2021/10/22 08:19:16;;;;;;;0.40;0.20;;;8.40;99.90;;;;;;5087564;28;20806;-73
2021/10/22 08:24:07;;;;;;;0.40;0.20;;;8.50;99.90;;;;;;5092826;28;20384;-75
2021/10/22 08:26:33;;;;;;;0.40;0.20;;;8.60;99.90;;;;;;5093349;28;20963;-74
2021/10/22 08:28:59;;;;;;;0.40;0.20;;;8.50;99.90;;;;;;5093640;28;20417;-73
2021/10/22 08:31:25;;;;;;;0.40;0.20;;;8.60;99.90;;;;;;5092430;28;21093;-74
2021/10/22 08:33:51;;;;;;;0.40;0.20;;;8.50;99.90;;;;;;5093356;28;20480;-74
2021/10/22 08:36:17;;;;;;;0.40;0.20;;;8.40;99.90;;;;;;5092843;28;20877;-74
2021/10/22 08:38:43;;;;;;;0.40;0.20;;;8.40;99.90;;;;;;5092932;28;20784;-74
2021/10/22 08:41:13;;;;;;;0.40;0.20;;;8.50;99.90;;;;;;5092525;28;20370;-76
2021/10/22 08:43:40;;;;;;;0.40;0.20;;;8.70;99.90;;;;;;5093034;28;20398;-74
2021/10/22 08:46:11;;;;;;;0.40;0.20;;;8.70;99.90;;;;;;5092918;28;20461;-76
2021/10/22 08:48:38;;;;;;;0.40;0.20;;;8.60;99.90;;;;;;5093183;28;20377;-74
2021/10/22 08:51:05;;;;;;;0.40;0.20;;;8.60;99.90;;;;;;5089259;28;20414;-74
2021/10/22 08:53:33;;;;;;;0.40;0.20;;;8.60;99.90;;;;;;5079681;28;21438;-75
2021/10/22 08:55:59;;;;;;;0.40;0.20;;;8.70;99.90;;;;;;5079371;28;20551;-76
2021/10/22 08:58:26;;;;;;;0.50;0.50;;;8.70;99.90;;;;;;5077182;28;20409;-75
2021/10/22 09:00:52;;;;;;;0.40;0.20;;;8.80;99.90;;;;;;5079597;28;20443;-74
2021/10/22 09:03:19;;;;;;;0.40;0.20;;;8.70;99.90;;;;;;5076630;28;20425;-75
2021/10/22 09:06:02;;;;;;;0.40;0.20;;;8.80;99.90;;;;;;5078724;28;20433;-74
2021/10/22 09:08:38;;;;;;;1.20;1.00;;;9.00;99.90;;;;;;5078473;28;20873;-76
2021/10/22 09:11:06;;;;;;;0.40;0.20;;;9.10;99.90;;;;;;5077095;28;20408;-75
2021/10/22 09:13:34;;;;;;;0.40;0.20;;;9.10;99.90;;;;;;5075870;28;20395;-76
2021/10/22 09:16:18;;;;;;;0.40;0.20;;;9.10;99.90;;;;;;5079415;28;20447;-75
2021/10/22 09:18:44;;;;;;;0.40;0.20;;;9.10;99.90;;;;;;5077050;28;20421;-75
2021/10/22 09:21:10;;;;;;;0.40;0.20;;;9.10;99.90;;;;;;5077435;28;20398;-76
2021/10/22 09:23:38;;;;;;;0.40;0.20;;;9.00;99.90;;;;;;5074388;28;20418;-76
2021/10/22 09:26:22;;;;;;;0.40;0.20;;;9.10;99.90;;;;;;5076528;28;20515;-76
2021/10/22 09:28:49;;;;;;;0.40;0.20;;;9.20;99.90;;;;;;5077969;28;20401;-73
2021/10/22 09:31:17;;;;;;;0.40;0.20;;;9.40;99.90;;;;;;5077402;28;20902;-72
2021/10/22 09:33:54;;;;;;;0.40;0.20;;;9.60;99.90;;;;;;5077288;28;20378;-72
2021/10/22 09:36:48;;;;;;;0.40;0.20;;;9.70;99.90;;;;;;5077593;28;20388;-75
2021/10/22 09:39:21;;;;;;;0.40;0.20;;;9.70;99.90;;;;;;5074692;28;20911;-75
2021/10/22 09:41:49;;;;;;;0.40;0.20;;;9.70;99.90;;;;;;5074574;28;20406;-74
2021/10/22 09:44:23;;;;;;;0.40;0.40;;;9.80;99.90;;;;;;5077288;28;20862;-72
2021/10/22 09:47:13;;;;;;;0.40;0.20;;;10.00;99.90;;;;;;5077559;28;20439;-73
2021/10/22 09:49:44;;;;;;;0.40;0.20;;;10.10;99.90;;;;;;5068846;28;20393;-74
2021/10/22 09:52:36;;;;;;;0.40;0.20;;;10.10;99.90;;;;;;5075843;28;20409;-75
2021/10/22 09:55:09;;;;;;;1.20;0.80;;;9.90;99.90;;;;;;5074977;28;20485;-73
2021/10/22 09:57:42;;;;;;;0.40;0.20;;;9.90;99.90;;;;;;5075522;28;20481;-74
2021/10/22 10:00:08;;;;;;;0.40;0.20;;;10.10;99.90;;;;;;5078181;28;20386;-73
2021/10/22 10:02:40;;;;;;;0.40;0.20;;;10.10;99.90;;;;;;5074903;28;20425;-73
2021/10/22 10:05:08;;;;;;;0.40;0.20;;;10.30;99.90;;;;;;5077268;28;20479;-73
2021/10/22 10:07:42;;;;;;;0.40;0.20;;;10.30;99.90;;;;;;5076149;28;21178;-73
2021/10/22 10:10:09;;;;;;;0.40;0.20;;;10.10;99.90;;;;;;5077082;28;20447;-73
2021/10/22 10:12:36;;;;;;;0.40;0.20;;;10.10;99.90;;;;;;5074491;28;20451;-72
2021/10/22 10:15:03;;;;;;;0.40;0.20;;;10.20;99.20;;;;;;5076951;28;20397;-72
2021/10/22 10:17:32;;;;;;;0.40;0.20;;;10.10;96.90;;;;;;5077085;28;20378;-72
2021/10/22 10:19:58;;;;;;;0.40;0.20;;;10.10;98.80;;;;;;5077354;28;20386;-72
2021/10/22 10:22:30;;;;;;;0.40;0.20;;;10.10;99.30;;;;;;5074205;28;20507;-72
2021/10/22 10:25:06;;;;;;;0.40;0.30;;;10.30;99.90;;;;;;5077403;28;20793;-72
2021/10/22 10:27:46;;;;;;;0.40;0.20;;;10.60;99.90;;;;;;5076778;28;20525;-72
2021/10/22 10:30:26;;;;;;;0.40;0.20;;;10.90;99.90;;;;;;5077491;28;21561;-74
2021/10/22 10:32:52;;;;;;;0.40;0.20;;;10.80;99.90;;;;;;5075373;28;20447;-73
2021/10/22 10:35:18;;;;;;;0.40;0.20;;;10.60;99.90;;;;;;5077124;28;20382;-73
2021/10/22 10:37:49;;;;;;;0.40;0.20;;;10.60;99.90;;;;;;5077511;28;20456;-70
2021/10/22 10:40:21;;;;;;;0.40;0.20;;;10.50;99.90;;;;;;5077113;28;20382;-74
2021/10/22 10:42:49;;;;;;;0.40;0.20;;;11.00;99.90;;;;;;5075321;28;20816;-71
2021/10/22 10:45:26;;;;;;;0.40;0.20;;;11.00;98.00;;;;;;5077079;28;20919;-72
2021/10/22 10:47:55;;;;;;;0.40;0.30;;;11.60;97.10;;;;;;5076894;28;20398;-72
2021/10/22 10:50:41;;;;;;;0.40;0.20;;;11.70;95.60;;;;;;5074657;28;20417;-71
2021/10/22 10:53:08;;;;;;;0.40;0.20;;;12.20;94.00;;;;;;5074930;28;20413;-71
2021/10/22 10:55:42;;;;;;;0.40;0.20;;;12.50;92.80;;;;;;5076105;28;20370;-71
2021/10/22 10:58:08;;;;;;;0.40;0.20;;;12.10;93.30;;;;;;5077237;28;20398;-72
2021/10/22 11:00:39;;;;;;;0.40;0.30;;;12.60;90.90;;;;;;5075771;28;20378;-71
2021/10/22 11:03:06;;;;;;;0.40;0.20;;;13.10;91.60;;;;;;5074672;28;20490;-72
2021/10/22 11:05:53;;;;;;;0.40;0.30;;;13.80;91.70;;;;;;5076199;28;20386;-71
2021/10/22 11:08:26;;;;;;;0.40;0.20;;;14.50;82.00;;;;;;5076376;28;20469;-72
2021/10/22 11:11:03;;;;;;;0.40;0.20;;;14.00;80.80;;;;;;5077157;28;20397;-72
2021/10/22 11:13:54;;;;;;;0.40;0.20;;;14.90;81.00;;;;;;5074119;28;20738;-72
2021/10/22 11:16:29;;;;;;;0.40;0.20;;;14.40;82.10;;;;;;5076495;28;21172;-72
2021/10/22 11:19:03;;;;;;;0.40;0.30;;;15.20;85.50;;;;;;5076189;28;20944;-72
2021/10/22 11:21:31;;;;;;;0.40;0.30;;;15.50;86.90;;;;;;5073796;28;20431;-72
2021/10/22 11:23:58;;;;;;;0.40;0.30;;;15.70;81.30;;;;;;5075521;28;20453;-72
2021/10/22 11:26:24;;;;;;;0.40;0.20;;;16.10;79.70;;;;;;5076198;28;21139;-73
2021/10/22 11:28:54;;;;;;;0.40;0.30;;;16.10;83.60;;;;;;5076843;28;20392;-72
2021/10/22 11:31:40;;;;;;;0.40;0.20;;;15.90;76.30;;;;;;5075172;28;20858;-73
2021/10/22 11:34:18;;;;;;;0.40;0.20;;;16.20;77.10;;;;;;5076391;28;20405;-72
2021/10/22 11:36:59;;;;;;;0.40;0.28;;;14.40;69.90;;;;;;5076960;28;20405;-72
2021/10/22 11:39:45;;;;;;;0.40;0.20;;;15.30;75.10;;;;;;5080025;28;21230;-73
2021/10/22 11:42:11;;;;;;;0.40;0.30;;;15.70;69.70;;;;;;5079133;28;20418;-72
2021/10/22 11:44:44;;;;;;;0.40;0.20;;;14.90;71.60;;;;;;5079685;28;20523;-71
2021/10/22 11:47:10;;;;;;;0.40;0.20;;;14.30;68.80;;;;;;5079604;28;20398;-72
2021/10/22 11:49:37;;;;;;;0.40;0.30;;;14.30;73.20;;;;;;5079078;28;21060;-73
2021/10/22 11:52:05;;;;;;;0.40;0.20;;;14.80;70.10;;;;;;5076078;28;20417;-72
2021/10/22 11:54:37;;;;;;;0.40;0.30;;;15.70;67.60;;;;;;5079026;28;20374;-73
2021/10/22 11:57:04;;;;;;;0.40;0.20;;;15.40;69.60;;;;;;5079748;28;20397;-72
2021/10/22 11:59:31;;;;;;;0.40;0.30;;;16.50;63.00;;;;;;5077965;28;20588;-73
2021/10/22 12:02:07;;;;;;;0.40;0.20;;;16.70;58.70;;;;;;5077564;28;20477;-73
2021/10/22 12:04:34;;;;;;;0.40;0.30;;;15.40;65.80;;;;;;5079284;28;20478;-72
2021/10/22 12:07:07;;;;;;;0.40;0.20;;;14.30;61.30;;;;;;5078318;28;21140;-72
2021/10/22 12:09:35;;;;;;;0.40;0.20;;;15.20;67.20;;;;;;5077567;28;20818;-72
2021/10/22 12:12:10;;;;;;;0.40;0.20;;;15.70;67.10;;;;;;5076901;28;20413;-72
2021/10/22 12:14:39;;;;;;;0.40;0.20;;;15.70;60.80;;;;;;5078718;28;20386;-72
2021/10/22 12:17:06;;;;;;;0.40;0.20;;;15.20;59.30;;;;;;5079640;28;20421;-72
2021/10/22 12:19:32;;;;;;;0.40;0.30;;;14.50;60.30;;;;;;5078788;28;20393;-72
2021/10/22 12:21:59;;;;;;;0.40;0.30;;;14.10;60.90;;;;;;5077335;28;20373;-72
2021/10/22 12:24:35;;;;;;;0.40;0.20;;;14.20;63.10;;;;;;5078462;28;20486;-71
2021/10/22 12:27:08;;;;;;;0.40;0.22;;;13.90;63.10;;;;;;5080088;28;20386;-71
2021/10/22 12:30:08;;;;;;;0.40;0.20;;;14.60;69.10;;;;;;5076627;28;20451;-71
2021/10/22 12:32:39;;;;;;;0.40;0.30;;;14.40;63.30;;;;;;5047283;28;20414;-71
2021/10/22 12:35:10;;;;;;;0.40;0.20;;;13.40;66.40;;;;;;5072147;28;20388;-71
2021/10/22 12:37:41;;;;;;;0.40;0.20;;;13.20;67.60;;;;;;5071178;28;20517;-71
2021/10/22 12:40:14;;;;;;;0.40;0.20;;;14.50;67.40;;;;;;5071515;28;20949;-71
2021/10/22 12:42:41;;;;;;;0.40;0.30;;;14.80;59.80;;;;;;5070733;28;20517;-71
2021/10/22 12:45:21;;;;;;;0.40;0.20;;;14.20;59.60;;;;;;5072643;28;20383;-71
2021/10/22 12:47:48;;;;;;;0.40;0.20;;;14.50;63.10;;;;;;5091639;28;20378;-71
2021/10/22 12:50:18;;;;;;;0.40;0.20;;;14.40;63.80;;;;;;5092156;28;20374;-70
2021/10/22 12:52:59;;;;;;;0.40;0.20;;;13.90;62.10;;;;;;5091193;28;20405;-71
2021/10/22 12:55:27;;;;;;;0.40;0.30;;;13.90;65.80;;;;;;5090031;28;20408;-71
2021/10/22 12:58:21;;;;;;;0.40;0.30;;;13.80;66.80;;;;;;5092025;28;20413;-71
2021/10/22 13:01:16;;;;;;;0.40;0.20;;;13.70;67.30;;;;;;5090561;28;20388;-71
2021/10/22 13:04:02;;;;;;;0.40;0.20;;;15.00;67.50;;;;;;5091069;28;20440;-70
2021/10/22 13:06:37;;;;;;;0.40;0.20;;;15.00;63.50;;;;;;5089456;28;20883;-71
2021/10/22 13:09:30;;;;;;;0.40;0.20;;;14.70;67.40;;;;;;5091969;28;20388;-71
2021/10/22 13:12:20;;;;;;;0.40;0.20;;;14.90;66.20;;;;;;5091890;28;20469;-71
2021/10/22 13:22:43;;;;;;;0.40;0.20;;;15.90;65.10;;;;;;5091399;28;20875;-72